createdAt,value
2018-10-05T00:01:30.809Z,101655.22
2018-10-05T00:03:59.280Z,101653.91
2018-10-05T00:06:27.788Z,101653.48
2018-10-05T00:08:56.470Z,101651.31
2018-10-05T00:11:24.961Z,101654.39
2018-10-05T00:13:53.459Z,101655.73
2018-10-05T00:16:21.917Z,101656.19
2018-10-05T00:18:50.455Z,101654.88
2018-10-05T00:21:19.216Z,101659.69
2018-10-05T00:23:47.830Z,101657.52
2018-10-05T00:26:16.377Z,101651.39
2018-10-05T00:28:44.917Z,101653.16
2018-10-05T00:31:14.060Z,101652.30
2018-10-05T00:33:42.852Z,101649.67
2018-10-05T00:36:11.405Z,101650.09
2018-10-05T00:38:39.846Z,101651.86
2018-10-05T00:41:08.421Z,101645.77
2018-10-05T00:43:36.971Z,101637.52
2018-10-05T00:46:05.765Z,101638.83
2018-10-05T00:48:34.266Z,101629.22
2018-10-05T00:51:03.029Z,101627.06
2018-10-05T00:53:31.663Z,101625.75
2018-10-05T00:56:00.716Z,101626.63
2018-10-05T00:58:29.418Z,101627.94
2018-10-05T01:00:58.103Z,101630.55
2018-10-05T01:03:26.704Z,101621.83
2018-10-05T01:05:55.283Z,101627.09
2018-10-05T01:08:23.821Z,101618.80
2018-10-05T01:10:52.396Z,101614.90
2018-10-05T01:13:20.840Z,101614.02
2018-10-05T01:15:49.347Z,101624.92
2018-10-05T01:18:19.363Z,101610.53
2018-10-05T01:20:48.641Z,101617.11
2018-10-05T01:23:18.255Z,101614.48
2018-10-05T01:25:47.072Z,101610.12
2018-10-05T01:28:15.508Z,101607.50
2018-10-05T01:30:44.171Z,101605.34
2018-10-05T01:33:12.734Z,101598.78
2018-10-05T01:35:41.153Z,101594.86
2018-10-05T01:38:09.718Z,101594.85
2018-10-05T01:40:38.313Z,101594.88
2018-10-05T01:43:06.780Z,101584.84
2018-10-05T01:45:35.417Z,101581.34
2018-10-05T01:48:04.270Z,101579.17
2018-10-05T01:50:32.813Z,101576.98
2018-10-05T01:53:01.269Z,101573.05
2018-10-05T01:55:30.019Z,101575.27
2018-10-05T01:57:58.672Z,101576.56
2018-10-05T02:00:27.278Z,101579.66
2018-10-05T02:02:56.055Z,101570.52
2018-10-05T02:05:24.853Z,101570.94
2018-10-05T02:07:53.317Z,101577.05
2018-10-05T02:10:21.856Z,101567.46
2018-10-05T02:12:50.426Z,101561.78
2018-10-05T02:15:19.253Z,101553.97
2018-10-05T02:17:47.994Z,101550.05
2018-10-05T02:20:16.573Z,101555.70
2018-10-05T02:22:45.384Z,101548.26
2018-10-05T02:25:13.944Z,101545.21
2018-10-05T02:27:43.545Z,101546.98
2018-10-05T02:30:12.125Z,101546.13
2018-10-05T02:32:40.587Z,101537.83
2018-10-05T02:35:09.233Z,101540.45
2018-10-05T02:37:38.577Z,101541.80
2018-10-05T02:40:07.643Z,101541.78
2018-10-05T02:42:36.214Z,101538.73
2018-10-05T02:45:05.262Z,101530.45
2018-10-05T02:47:33.756Z,101528.69
2018-10-05T02:50:02.215Z,101529.14
2018-10-05T02:52:30.815Z,101527.83
2018-10-05T02:54:59.368Z,101524.36
2018-10-05T02:57:27.960Z,101514.77
2018-10-05T02:59:56.647Z,101513.02
2018-10-05T03:02:32.567Z,101507.36
2018-10-05T03:05:01.063Z,101509.98
2018-10-05T03:07:30.551Z,101504.73
2018-10-05T03:10:00.006Z,101505.63
2018-10-05T03:12:29.119Z,101507.81
2018-10-05T03:14:57.760Z,101502.58
2018-10-05T03:17:26.924Z,101505.19
2018-10-05T03:19:55.564Z,101503.88
2018-10-05T03:22:23.984Z,101506.52
2018-10-05T03:24:53.025Z,101502.16
2018-10-05T03:27:21.805Z,101500.84
2018-10-05T03:29:50.381Z,101507.38
2018-10-05T03:32:18.817Z,101506.08
2018-10-05T03:34:47.478Z,101500.83
2018-10-05T03:37:16.201Z,101492.13
2018-10-05T03:39:44.797Z,101493.45
2018-10-05T03:42:13.972Z,101499.56
2018-10-05T03:44:42.490Z,101493.02
2018-10-05T03:47:11.042Z,101487.35
2018-10-05T03:49:39.674Z,101485.19
2018-10-05T03:52:08.364Z,101477.78
2018-10-05T03:54:36.995Z,101481.72
2018-10-05T03:57:07.097Z,101481.25
2018-10-05T03:59:36.445Z,101476.47
2018-10-05T04:02:05.369Z,101483.89
2018-10-05T04:04:33.826Z,101476.04
2018-10-05T04:07:03.090Z,101476.48
2018-10-05T04:09:31.510Z,101470.81
2018-10-05T04:12:00.052Z,101469.08
2018-10-05T04:14:28.659Z,101467.80
2018-10-05T04:16:57.169Z,101470.84
2018-10-05T04:19:25.757Z,101469.11
2018-10-05T04:21:54.379Z,101467.37
2018-10-05T04:24:22.936Z,101460.41
2018-10-05T04:26:52.470Z,101458.21
2018-10-05T04:29:21.126Z,101451.66
2018-10-05T04:31:49.664Z,101455.59
2018-10-05T04:34:18.144Z,101453.43
2018-10-05T04:36:46.662Z,101448.62
2018-10-05T04:39:15.223Z,101442.08
2018-10-05T04:41:43.867Z,101440.34
2018-10-05T04:44:12.447Z,101439.06
2018-10-05T04:46:55.975Z,101436.87
2018-10-05T04:49:41.764Z,101431.65
2018-10-05T04:55:07.484Z,101428.61
2018-10-05T04:57:36.047Z,101428.62
2018-10-05T05:00:05.342Z,101429.51
2018-10-05T05:02:34.529Z,101429.95
2018-10-05T05:05:03.163Z,101423.40
2018-10-05T05:07:32.814Z,101423.87
2018-10-05T05:10:01.361Z,101424.28
2018-10-05T05:12:29.813Z,101423.44
2018-10-05T05:14:59.025Z,101422.55
2018-10-05T05:17:27.658Z,101423.43
2018-10-05T05:19:56.394Z,101433.03
2018-10-05T05:22:24.815Z,101432.56
2018-10-05T05:24:53.293Z,101432.99
2018-10-05T05:27:21.880Z,101429.48
2018-10-05T05:29:50.830Z,101422.05
2018-10-05T05:32:19.656Z,101422.92
2018-10-05T05:34:48.316Z,101424.23
2018-10-05T05:37:17.553Z,101427.29
2018-10-05T05:39:46.074Z,101419.87
2018-10-05T05:42:15.255Z,101418.54
2018-10-05T05:44:43.840Z,101417.66
2018-10-05T05:47:18.726Z,101418.97
2018-10-05T05:49:47.262Z,101416.35
2018-10-05T05:52:15.731Z,101414.62
2018-10-05T05:54:44.315Z,101417.67
2018-10-05T05:57:13.474Z,101412.02
2018-10-05T05:59:42.329Z,101408.94
2018-10-05T06:02:10.928Z,101405.88
2018-10-05T06:04:39.656Z,101407.63
2018-10-05T06:07:08.125Z,101412.41
2018-10-05T06:09:36.700Z,101413.29
2018-10-05T06:12:05.248Z,101414.58
2018-10-05T06:14:33.842Z,101417.20
2018-10-05T06:17:02.480Z,101412.81
2018-10-05T06:19:31.257Z,101408.47
2018-10-05T06:21:59.903Z,101409.75
2018-10-05T06:24:28.115Z,101414.13
2018-10-05T06:26:57.483Z,101415.02
2018-10-05T06:29:26.983Z,101424.14
2018-10-05T06:31:55.504Z,101413.67
2018-10-05T06:34:24.619Z,101414.11
2018-10-05T06:36:53.056Z,101408.88
2018-10-05T06:39:21.510Z,101412.76
2018-10-05T06:41:50.535Z,101407.50
2018-10-05T06:44:19.022Z,101407.48
2018-10-05T06:46:47.698Z,101407.49
2018-10-05T06:49:16.282Z,101409.63
2018-10-05T06:51:45.720Z,101400.04
2018-10-05T06:54:14.924Z,101400.89
2018-10-05T06:56:44.012Z,101400.88
2018-10-05T06:59:12.536Z,101402.19
2018-10-05T07:01:41.088Z,101403.02
2018-10-05T07:04:09.765Z,101405.17
2018-10-05T07:06:38.259Z,101402.56
2018-10-05T07:09:07.815Z,101408.66
2018-10-05T07:11:37.025Z,101410.82
2018-10-05T07:14:05.460Z,101414.30
2018-10-05T07:16:33.949Z,101403.83
2018-10-05T07:19:02.570Z,101406.87
2018-10-05T07:21:31.105Z,101409.92
2018-10-05T07:23:59.594Z,101405.97
2018-10-05T07:26:28.009Z,101408.98
2018-10-05T07:28:56.629Z,101402.86
2018-10-05T07:31:25.241Z,101401.52
2018-10-05T07:34:00.131Z,101404.96
2018-10-05T07:36:28.804Z,101399.69
2018-10-05T07:38:57.829Z,101399.23
2018-10-05T07:41:26.609Z,101405.75
2018-10-05T07:43:55.066Z,101408.77
2018-10-05T07:46:23.796Z,101400.86
2018-10-05T07:48:52.427Z,101404.76
2018-10-05T07:51:23.933Z,101409.93
2018-10-05T07:53:53.077Z,101405.53
2018-10-05T07:56:21.752Z,101408.55
2018-10-05T07:58:50.261Z,101412.40
2018-10-05T08:01:18.755Z,101419.73
2018-10-05T08:03:47.484Z,101411.39
2018-10-05T08:06:16.326Z,101412.16
2018-10-05T08:08:46.022Z,101408.61
2018-10-05T08:11:15.162Z,101408.55
2018-10-05T08:13:44.448Z,101413.28
2018-10-05T08:16:12.902Z,101407.52
2018-10-05T08:18:41.384Z,101406.13
2018-10-05T08:21:10.096Z,101411.74
2018-10-05T08:23:38.763Z,101406.02
2018-10-05T08:26:07.341Z,101408.53
2018-10-05T08:28:36.020Z,101409.74
2018-10-05T08:31:04.497Z,101410.09
2018-10-05T08:33:33.080Z,101403.42
2018-10-05T08:36:01.720Z,101394.54
2018-10-05T08:38:30.322Z,101387.39
2018-10-05T08:40:58.848Z,101386.84
2018-10-05T08:43:28.356Z,101384.93
2018-10-05T08:45:57.083Z,101386.06
2018-10-05T08:48:25.546Z,101384.60
2018-10-05T08:50:54.098Z,101380.45
2018-10-05T08:53:22.600Z,101374.57
2018-10-05T08:55:51.201Z,101370.92
2018-10-05T08:58:20.384Z,101372.45
2018-10-05T09:00:49.524Z,101360.88
2018-10-05T09:03:18.140Z,101369.86
2018-10-05T09:05:46.903Z,101361.37
2018-10-05T09:08:15.572Z,101356.29
2018-10-05T09:10:44.246Z,101350.34
2018-10-05T09:13:12.819Z,101349.19
2018-10-05T09:15:41.481Z,101347.60
2018-10-05T09:18:10.156Z,101346.02
2018-10-05T09:20:38.693Z,101335.70
2018-10-05T09:23:08.354Z,101334.45
2018-10-05T09:25:36.980Z,101327.05
2018-10-05T09:28:05.561Z,101334.58
2018-10-05T09:30:34.223Z,101330.38
2018-10-05T09:33:02.586Z,101326.20
2018-10-05T09:35:31.080Z,101320.04
2018-10-05T09:38:00.630Z,101309.22
2018-10-05T09:40:29.083Z,101309.70
2018-10-05T09:42:57.678Z,101304.09
2018-10-05T09:45:26.211Z,101302.32
2018-10-05T09:47:54.885Z,101295.73
2018-10-05T09:50:23.604Z,101287.45
2018-10-05T09:52:52.757Z,101282.59
2018-10-05T09:55:21.202Z,101278.12
2018-10-05T09:57:49.855Z,101276.22
2018-10-05T10:00:23.817Z,101268.22
2018-10-05T10:02:57.842Z,101259.57
2018-10-05T10:05:26.404Z,101255.83
2018-10-05T10:07:55.246Z,101256.20
2018-10-05T10:10:24.120Z,101246.90
2018-10-05T10:12:52.620Z,101254.39
2018-10-05T10:15:21.242Z,101250.69
2018-10-05T10:17:50.861Z,101250.66
2018-10-05T10:20:19.582Z,101248.26
2018-10-05T10:22:48.273Z,101248.09
2018-10-05T10:25:17.131Z,101242.61
2018-10-05T10:27:45.770Z,101242.70
2018-10-05T10:30:14.132Z,101245.30
2018-10-05T10:32:42.819Z,101237.09
2018-10-05T10:35:12.259Z,101237.20
2018-10-05T10:37:40.814Z,101229.16
2018-10-05T10:40:09.345Z,101223.13
2018-10-05T10:42:37.905Z,101216.09
2018-10-05T10:45:06.974Z,101220.60
2018-10-05T10:47:35.453Z,101218.39
2018-10-05T10:50:04.242Z,101208.67
2018-10-05T10:52:32.659Z,101198.27
2018-10-05T10:55:01.795Z,101193.44
2018-10-05T10:57:30.517Z,101187.49
2018-10-05T10:59:59.001Z,101183.17
2018-10-05T11:02:27.473Z,101169.72
2018-10-05T11:04:56.617Z,101164.34
2018-10-05T11:07:25.245Z,101162.86
2018-10-05T11:09:54.459Z,101160.76
2018-10-05T11:12:23.317Z,101156.05
2018-10-05T11:14:51.981Z,101148.72
2018-10-05T11:17:20.488Z,101145.11
2018-10-05T11:19:49.190Z,101149.35
2018-10-05T11:22:18.297Z,101138.56
2018-10-05T11:24:47.014Z,101131.58
2018-10-05T11:27:15.648Z,101120.94
2018-10-05T11:29:44.994Z,101119.26
2018-10-05T11:32:13.775Z,101112.63
2018-10-05T11:34:42.350Z,101111.05
2018-10-05T11:37:10.838Z,101102.66
2018-10-05T11:39:39.309Z,101096.25
2018-10-05T11:42:08.036Z,101092.59
2018-10-05T11:44:37.484Z,101093.36
2018-10-05T11:47:06.085Z,101089.41
2018-10-05T11:49:34.904Z,101091.17
2018-10-05T11:52:04.274Z,101088.45
2018-10-05T11:54:32.753Z,101080.42
2018-10-05T11:57:02.214Z,101080.98
2018-10-05T11:59:31.191Z,101076.64
2018-10-05T12:01:59.590Z,101070.91
2018-10-05T12:04:28.706Z,101066.23
2018-10-05T12:06:57.465Z,101064.11
2018-10-05T12:09:26.032Z,101064.89
2018-10-05T12:11:55.122Z,101060.85
2018-10-05T12:14:23.636Z,101053.99
2018-10-05T12:16:52.117Z,101046.11
2018-10-05T12:19:21.156Z,101045.66
2018-10-05T12:21:49.731Z,101043.17
2018-10-05T12:24:18.368Z,101036.27
2018-10-05T12:26:46.941Z,101035.41
2018-10-05T12:29:15.505Z,101028.59
2018-10-05T12:31:44.666Z,101033.41
2018-10-05T12:34:13.216Z,101028.70
2018-10-05T12:36:41.768Z,101031.05
2018-10-05T12:39:10.460Z,101028.59
2018-10-05T12:41:39.440Z,101021.29
2018-10-05T12:44:08.325Z,101022.41
2018-10-05T12:46:37.270Z,101014.70
2018-10-05T12:49:06.199Z,101012.88
2018-10-05T12:51:34.812Z,101002.61
2018-10-05T12:54:03.272Z,101004.31
2018-10-05T12:56:32.368Z,100996.27
2018-10-05T12:59:00.842Z,100995.40
2018-10-05T13:01:29.363Z,100998.88
2018-10-05T13:03:58.226Z,100995.32
2018-10-05T13:06:26.752Z,100988.71
2018-10-05T13:08:55.516Z,100980.65
2018-10-05T13:11:25.002Z,100978.21
2018-10-05T13:13:53.624Z,100979.30
2018-10-05T13:16:22.052Z,100971.47
2018-10-05T13:18:50.699Z,100965.61
2018-10-05T13:21:19.345Z,100969.38
2018-10-05T13:23:48.497Z,100961.66
2018-10-05T13:26:21.440Z,100955.67
2018-10-05T13:28:50.052Z,100959.95
2018-10-05T13:31:18.557Z,100958.08
2018-10-05T13:33:47.218Z,100947.36
2018-10-05T13:36:16.582Z,100941.02
2018-10-05T13:38:45.171Z,100938.48
2018-10-05T13:41:14.349Z,100931.77
2018-10-05T13:43:43.230Z,100926.16
2018-10-05T13:46:18.369Z,100924.56
2018-10-05T13:48:47.048Z,100920.16
2018-10-05T13:51:15.565Z,100915.91
2018-10-05T13:53:44.282Z,100914.52
2018-10-05T13:56:13.756Z,100910.91
2018-10-05T13:58:42.349Z,100902.34
2018-10-05T14:01:11.025Z,100898.42
2018-10-05T14:03:39.533Z,100896.97
2018-10-05T14:06:08.363Z,100890.95
2018-10-05T14:08:36.943Z,100902.48
2018-10-05T14:11:06.099Z,100890.03
2018-10-05T14:13:35.490Z,100891.52
2018-10-05T14:16:04.113Z,100890.80
2018-10-05T14:18:32.698Z,100885.27
2018-10-05T14:21:01.311Z,100889.17
2018-10-05T14:23:30.645Z,100887.98
2018-10-05T14:25:59.322Z,100880.64
2018-10-05T14:28:27.920Z,100888.30
2018-10-05T14:30:56.394Z,100884.38
2018-10-05T14:33:24.883Z,100882.35
2018-10-05T14:35:53.521Z,100876.34
2018-10-05T14:38:22.690Z,100878.60
2018-10-05T14:40:51.271Z,100870.09
2018-10-05T14:43:19.742Z,100861.20
2018-10-05T14:45:48.434Z,100849.06
2018-10-05T14:48:17.047Z,100850.13
2018-10-05T14:50:45.620Z,100840.50
2018-10-05T14:53:14.256Z,100834.38
2018-10-05T14:55:42.754Z,100830.58
2018-10-05T14:58:11.444Z,100826.42
2018-10-05T15:00:40.002Z,100822.88
2018-10-05T15:03:08.647Z,100819.93
2018-10-05T15:05:37.255Z,100820.95
2018-10-05T15:08:06.009Z,100815.17
2018-10-05T15:10:34.626Z,100825.05
2018-10-05T15:13:03.243Z,100825.03
2018-10-05T15:15:31.923Z,100815.50
2018-10-05T15:18:01.441Z,100810.92
2018-10-05T15:20:30.245Z,100812.86
2018-10-05T15:22:58.974Z,100807.81
2018-10-05T15:25:27.617Z,100808.58
2018-10-05T15:27:56.286Z,100815.20
2018-10-05T15:30:24.977Z,100805.15
2018-10-05T15:32:54.066Z,100809.63
2018-10-05T15:35:22.558Z,100797.01
2018-10-05T15:37:51.152Z,100801.98
2018-10-05T15:40:19.860Z,100798.48
2018-10-05T15:42:48.348Z,100803.11
